createdAt,value
2019-05-01T00:01:17.326Z,58.40
2019-05-01T00:04:07.574Z,58.40
2019-05-01T00:06:43.862Z,58.10
2019-05-01T00:09:15.646Z,58.00
2019-05-01T00:11:47.469Z,57.80
2019-05-01T00:14:19.240Z,57.80
2019-05-01T00:16:51.100Z,57.80
2019-05-01T00:19:22.730Z,57.70
2019-05-01T00:21:55.144Z,57.50
2019-05-01T00:24:26.761Z,57.60
2019-05-01T00:26:58.467Z,57.60
2019-05-01T00:29:30.384Z,57.60
2019-05-01T00:32:02.000Z,57.50
2019-05-01T00:34:33.672Z,57.60
2019-05-01T00:37:05.346Z,57.50
2019-05-01T00:39:37.100Z,57.50
2019-05-01T00:42:08.710Z,57.60
2019-05-01T00:44:40.448Z,57.60
2019-05-01T00:47:12.352Z,57.70
2019-05-01T00:49:44.010Z,57.70
2019-05-01T00:52:15.476Z,57.70
2019-05-01T00:54:49.633Z,58.30
2019-05-01T00:57:43.330Z,57.70
2019-05-01T01:00:42.535Z,57.70
2019-05-01T01:03:06.388Z,57.90
2019-05-01T01:05:38.049Z,57.80
2019-05-01T01:08:09.699Z,57.80
2019-05-01T01:10:41.540Z,57.80
2019-05-01T01:13:13.384Z,57.90
2019-05-01T01:15:45.366Z,57.90
2019-05-01T01:18:17.232Z,57.90
2019-05-01T01:20:48.766Z,57.90
2019-05-01T01:23:20.600Z,57.80
2019-05-01T01:25:52.629Z,57.80
2019-05-01T01:28:24.740Z,57.80
2019-05-01T01:30:56.927Z,58.70
2019-05-01T01:33:29.005Z,58.10
2019-05-01T01:36:01.056Z,58.20
2019-05-01T01:38:33.090Z,58.20
2019-05-01T01:41:05.116Z,58.20
2019-05-01T01:44:01.434Z,58.30
2019-05-01T01:46:34.504Z,58.30
2019-05-01T01:49:06.460Z,58.20
2019-05-01T01:51:38.860Z,58.20
2019-05-01T01:54:10.704Z,58.00
2019-05-01T01:56:42.660Z,57.70
2019-05-01T01:59:14.798Z,57.50
2019-05-01T02:01:58.534Z,57.40
2019-05-01T02:04:51.106Z,57.50
2019-05-01T02:07:23.094Z,57.50
2019-05-01T02:09:54.605Z,57.60
2019-05-01T02:12:26.324Z,57.60
2019-05-01T02:14:57.974Z,57.80
2019-05-01T02:17:29.842Z,57.80
2019-05-01T02:20:01.640Z,58.10
2019-05-01T02:22:33.346Z,58.10
2019-05-01T02:25:06.518Z,58.20
2019-05-01T02:27:48.898Z,58.70
2019-05-01T02:30:22.155Z,58.40
2019-05-01T02:33:01.866Z,58.50
2019-05-01T02:35:35.994Z,58.60
2019-05-01T02:38:09.124Z,58.70
2019-05-01T02:40:51.680Z,58.90
2019-05-01T02:43:26.829Z,59.10
2019-05-01T02:46:01.290Z,59.50
2019-05-01T02:48:35.525Z,59.80
2019-05-01T02:51:07.902Z,60.10
2019-05-01T02:53:42.439Z,60.90
2019-05-01T02:56:43.165Z,61.60
2019-05-01T02:59:15.379Z,62.10
2019-05-01T03:01:48.167Z,62.50
2019-05-01T03:04:20.674Z,63.00
2019-05-01T03:06:53.243Z,64.10
2019-05-01T03:09:25.399Z,63.40
2019-05-01T03:11:58.217Z,63.30
2019-05-01T03:14:31.784Z,62.80
2019-05-01T03:17:06.528Z,62.00
2019-05-01T03:20:05.510Z,61.20
2019-05-01T03:22:57.134Z,61.10
2019-05-01T03:25:28.897Z,61.20
2019-05-01T03:28:00.748Z,60.90
2019-05-01T03:30:32.684Z,60.90
2019-05-01T03:33:04.883Z,60.70
2019-05-01T03:35:36.941Z,60.40
2019-05-01T03:38:08.729Z,60.00
2019-05-01T03:40:41.121Z,59.70
2019-05-01T03:43:13.014Z,59.60
2019-05-01T03:45:44.959Z,59.50
2019-05-01T03:48:16.805Z,59.30
2019-05-01T03:50:48.867Z,59.30
2019-05-01T03:53:20.814Z,59.50
2019-05-01T03:55:53.058Z,59.50
2019-05-01T03:58:25.238Z,59.30
2019-05-01T04:01:17.976Z,59.20
2019-05-01T04:03:54.424Z,59.00
2019-05-01T04:06:26.147Z,58.90
2019-05-01T04:08:58.575Z,58.90
2019-05-01T04:11:30.490Z,58.90
2019-05-01T04:14:02.565Z,58.70
2019-05-01T04:16:35.140Z,58.50
2019-05-01T04:19:07.244Z,58.50
2019-05-01T04:21:45.722Z,58.70
2019-05-01T04:24:18.382Z,58.80
2019-05-01T04:26:50.524Z,58.70
2019-05-01T04:29:32.266Z,58.70
2019-05-01T04:32:17.591Z,58.70
2019-05-01T04:35:02.481Z,58.80
2019-05-01T04:37:34.772Z,59.00
2019-05-01T04:40:06.751Z,59.10
2019-05-01T04:42:38.735Z,59.10
2019-05-01T04:45:10.664Z,59.00
2019-05-01T04:47:42.727Z,58.90
2019-05-01T04:50:14.873Z,58.80
2019-05-01T04:52:47.268Z,58.70
2019-05-01T04:55:19.740Z,58.60
2019-05-01T04:57:51.495Z,58.80
2019-05-01T05:00:23.362Z,58.80
2019-05-01T05:03:05.487Z,59.10
2019-05-01T05:05:38.018Z,59.50
2019-05-01T05:08:10.280Z,59.70
2019-05-01T05:10:42.201Z,59.80
2019-05-01T05:13:40.741Z,59.80
2019-05-01T05:16:46.620Z,59.90
2019-05-01T05:19:18.963Z,59.70
2019-05-01T05:21:51.502Z,59.50
2019-05-01T05:24:23.728Z,59.10
2019-05-01T05:26:56.028Z,59.00
2019-05-01T05:29:28.794Z,59.00
2019-05-01T05:32:03.049Z,58.70
2019-05-01T05:34:36.604Z,58.40
2019-05-01T05:37:19.443Z,57.90
2019-05-01T05:39:53.010Z,57.80
2019-05-01T05:42:26.643Z,57.40
2019-05-01T05:44:58.514Z,56.90
2019-05-01T05:47:30.039Z,56.70
2019-05-01T05:50:01.914Z,56.30
2019-05-01T05:52:45.753Z,56.20
2019-05-01T05:55:25.550Z,56.20
2019-05-01T05:58:08.974Z,56.30
2019-05-01T06:01:07.361Z,56.40
2019-05-01T06:03:55.306Z,56.50
2019-05-01T06:06:52.972Z,56.00
2019-05-01T06:09:34.988Z,55.70
2019-05-01T06:12:18.399Z,53.80
2019-05-01T06:15:14.108Z,52.40
2019-05-01T06:17:51.697Z,51.50
2019-05-01T06:20:50.207Z,50.20
2019-05-01T06:23:44.556Z,49.30
2019-05-01T06:26:37.759Z,49.20
2019-05-01T06:29:09.228Z,49.10
2019-05-01T06:31:41.318Z,49.10
2019-05-01T06:34:13.382Z,48.40
2019-05-01T06:36:49.771Z,47.20
2019-05-01T06:39:18.987Z,45.20
2019-05-01T06:41:52.168Z,43.40
2019-05-01T06:44:45.376Z,42.10
2019-05-01T06:47:28.153Z,41.10
2019-05-01T06:50:20.698Z,40.10
2019-05-01T06:52:53.480Z,39.60
2019-05-01T06:55:27.353Z,40.10
2019-05-01T06:58:00.206Z,40.20
2019-05-01T07:00:43.028Z,40.20
2019-05-01T07:03:14.806Z,40.20
2019-05-01T07:05:49.076Z,39.00
2019-05-01T07:08:24.816Z,37.30
2019-05-01T07:10:54.146Z,35.40
2019-05-01T07:13:26.394Z,34.00
2019-05-01T07:16:00.527Z,32.90
2019-05-01T07:18:31.958Z,33.00
2019-05-01T07:21:04.394Z,34.00
2019-05-01T07:23:36.426Z,34.50
2019-05-01T07:26:09.964Z,34.20
2019-05-01T07:28:43.693Z,33.50
2019-05-01T07:31:16.258Z,30.80
2019-05-01T07:33:51.189Z,29.90
2019-05-01T07:36:21.824Z,29.30
2019-05-01T07:38:53.707Z,28.70
2019-05-01T07:41:25.716Z,28.80
2019-05-01T07:44:21.390Z,28.90
2019-05-01T07:47:25.858Z,28.70
2019-05-01T07:50:03.284Z,28.40
2019-05-01T07:52:35.202Z,28.50
2019-05-01T07:55:07.823Z,28.50
2019-05-01T07:57:41.287Z,27.80
2019-05-01T08:00:25.070Z,27.80
2019-05-01T08:02:56.846Z,28.80
2019-05-01T08:05:28.920Z,29.40
2019-05-01T08:08:02.825Z,30.00
2019-05-01T08:10:34.202Z,30.70
2019-05-01T08:13:06.158Z,30.70
2019-05-01T08:15:37.934Z,30.80
2019-05-01T08:18:18.276Z,30.50
2019-05-01T08:20:56.298Z,30.20
2019-05-01T08:23:28.544Z,30.00
2019-05-01T08:26:04.002Z,29.80
2019-05-01T08:28:57.896Z,29.60
2019-05-01T08:31:58.762Z,29.60
2019-05-01T08:34:30.478Z,29.70
2019-05-01T08:37:02.244Z,28.80
2019-05-01T08:39:34.058Z,28.20
2019-05-01T08:42:07.092Z,28.00
2019-05-01T08:44:51.072Z,27.60
2019-05-01T08:47:29.584Z,27.40
2019-05-01T08:50:08.407Z,27.40
2019-05-01T08:52:42.759Z,27.10
2019-05-01T08:55:14.038Z,27.00
2019-05-01T08:57:45.931Z,26.80
2019-05-01T09:00:18.725Z,26.80
2019-05-01T09:02:50.635Z,26.70
2019-05-01T09:05:28.795Z,26.30
2019-05-01T09:07:57.725Z,26.00
2019-05-01T09:10:29.858Z,26.10
2019-05-01T09:13:01.725Z,26.50
2019-05-01T09:15:33.556Z,26.30
2019-05-01T09:18:05.530Z,26.10
2019-05-01T09:20:38.920Z,25.90
2019-05-01T09:23:14.324Z,25.60
2019-05-01T09:25:51.774Z,25.50
2019-05-01T09:28:29.445Z,25.50
2019-05-01T09:31:03.396Z,25.60
2019-05-01T09:33:35.668Z,25.90
2019-05-01T09:36:07.667Z,26.30
2019-05-01T09:38:39.452Z,27.10
2019-05-01T09:41:11.362Z,27.80
2019-05-01T09:43:43.604Z,28.00
2019-05-01T09:46:23.026Z,28.10
2019-05-01T09:48:55.032Z,28.40
2019-05-01T09:51:50.944Z,29.40
2019-05-01T09:54:43.072Z,30.40
2019-05-01T09:57:16.436Z,31.60
2019-05-01T09:59:48.426Z,32.30
2019-05-01T10:02:20.488Z,32.60
2019-05-01T10:04:52.560Z,32.60
2019-05-01T10:07:28.951Z,32.50
2019-05-01T10:09:58.234Z,32.10
2019-05-01T10:12:30.120Z,31.60
2019-05-01T10:15:02.125Z,31.20
2019-05-01T10:17:34.072Z,31.50
2019-05-01T10:20:06.189Z,31.70
2019-05-01T10:22:38.723Z,32.10
2019-05-01T10:25:12.395Z,32.50
2019-05-01T10:27:52.752Z,32.90
2019-05-01T10:30:50.143Z,33.00
2019-05-01T10:33:29.023Z,32.90
2019-05-01T10:36:20.598Z,32.50
2019-05-01T10:38:52.016Z,32.40
2019-05-01T10:41:23.890Z,32.50
2019-05-01T10:43:56.608Z,32.50
2019-05-01T10:46:28.578Z,32.80
2019-05-01T10:49:00.357Z,32.70
2019-05-01T10:51:32.455Z,32.70
2019-05-01T10:54:04.478Z,32.90
2019-05-01T10:56:36.358Z,32.90
2019-05-01T10:59:08.327Z,32.90
2019-05-01T11:01:51.310Z,32.70
2019-05-01T11:04:23.422Z,32.50
2019-05-01T11:06:55.638Z,32.90
2019-05-01T11:09:27.392Z,33.10
2019-05-01T11:11:59.267Z,33.20
2019-05-01T11:14:31.300Z,33.20
2019-05-01T11:17:03.452Z,33.10
2019-05-01T11:19:35.288Z,33.00
2019-05-01T11:22:07.178Z,32.90
2019-05-01T11:24:39.144Z,32.50
2019-05-01T11:27:11.255Z,32.10
2019-05-01T11:29:43.026Z,31.90
2019-05-01T11:32:31.931Z,31.80
2019-05-01T11:35:22.943Z,31.80
2019-05-01T11:38:07.846Z,31.70
2019-05-01T11:40:48.893Z,31.40
2019-05-01T11:43:20.724Z,31.70
2019-05-01T11:45:52.654Z,31.80
2019-05-01T11:48:25.001Z,31.60
2019-05-01T11:50:58.339Z,31.20
2019-05-01T11:53:30.355Z,31.30
2019-05-01T11:56:02.804Z,31.60
2019-05-01T11:58:34.730Z,31.70
2019-05-01T12:01:07.799Z,32.30
2019-05-01T12:03:39.483Z,33.10
2019-05-01T12:06:22.405Z,32.90
2019-05-01T12:08:46.423Z,32.50
2019-05-01T12:11:19.612Z,32.30
2019-05-01T12:13:51.582Z,32.30
2019-05-01T12:16:47.008Z,32.50
2019-05-01T12:19:19.220Z,32.50
2019-05-01T12:21:51.019Z,32.70
2019-05-01T12:24:23.042Z,32.80
2019-05-01T12:26:54.834Z,32.80
2019-05-01T12:29:27.174Z,32.80
2019-05-01T12:31:58.936Z,32.40
2019-05-01T12:34:30.880Z,32.00
2019-05-01T12:37:23.276Z,31.60
2019-05-01T12:40:02.601Z,31.20
2019-05-01T12:42:35.002Z,30.70
2019-05-01T12:45:07.590Z,30.20
2019-05-01T12:47:50.064Z,30.20
2019-05-01T12:50:22.920Z,30.00
2019-05-01T12:53:16.030Z,30.40
2019-05-01T12:56:08.894Z,30.60
2019-05-01T12:58:55.921Z,30.70
2019-05-01T13:01:34.733Z,30.60
2019-05-01T13:04:07.308Z,30.20
2019-05-01T13:06:48.855Z,30.00
2019-05-01T13:09:13.228Z,29.90
2019-05-01T13:11:45.960Z,29.80
2019-05-01T13:14:18.014Z,29.60
2019-05-01T13:16:49.988Z,29.50
2019-05-01T13:19:21.860Z,29.50
2019-05-01T13:21:53.760Z,29.20
2019-05-01T13:24:25.844Z,29.30
2019-05-01T13:27:19.314Z,29.30
2019-05-01T13:30:01.660Z,29.20
2019-05-01T13:32:45.770Z,28.70
2019-05-01T13:35:17.453Z,28.70
2019-05-01T13:37:49.314Z,29.10
2019-05-01T13:40:22.536Z,29.30
2019-05-01T13:42:54.286Z,29.60
2019-05-01T13:45:26.536Z,29.80
2019-05-01T13:47:58.699Z,29.90
2019-05-01T13:50:30.821Z,29.80
2019-05-01T13:53:02.818Z,29.60
2019-05-01T13:55:34.942Z,29.50
2019-05-01T13:58:14.364Z,29.20
2019-05-01T14:00:46.501Z,29.10
2019-05-01T14:03:18.460Z,29.00
2019-05-01T14:05:50.233Z,28.90
2019-05-01T14:08:22.818Z,28.70
2019-05-01T14:11:02.331Z,28.60
2019-05-01T14:13:34.144Z,28.30
2019-05-01T14:16:07.802Z,28.30
2019-05-01T14:18:39.897Z,27.80
2019-05-01T14:21:44.488Z,27.80
2019-05-01T14:24:36.205Z,27.70
2019-05-01T14:27:08.009Z,27.10
2019-05-01T14:29:40.125Z,26.90
2019-05-01T14:32:13.576Z,26.10
2019-05-01T14:34:45.416Z,26.10
2019-05-01T14:37:29.053Z,25.80
2019-05-01T14:39:51.136Z,25.30
2019-05-01T14:42:23.002Z,25.20
2019-05-01T14:44:55.024Z,24.70
2019-05-01T14:47:34.816Z,24.60
2019-05-01T14:50:07.455Z,24.50
2019-05-01T14:52:39.456Z,24.50
2019-05-01T14:55:11.828Z,24.50
2019-05-01T14:57:43.592Z,24.20
2019-05-01T15:00:16.586Z,24.20
2019-05-01T15:02:48.436Z,24.30
2019-05-01T15:05:20.472Z,24.50
2019-05-01T15:07:52.350Z,23.50
2019-05-01T15:10:24.678Z,23.80
2019-05-01T15:12:57.929Z,25.30
2019-05-01T15:15:49.272Z,25.20
2019-05-01T15:18:42.130Z,24.90
2019-05-01T15:21:14.218Z,25.30
2019-05-01T15:23:53.294Z,24.90
2019-05-01T15:26:19.672Z,24.30
2019-05-01T15:28:51.699Z,24.70
2019-05-01T15:31:23.435Z,25.80
2019-05-01T15:33:55.176Z,25.30
2019-05-01T15:36:27.258Z,25.60
2019-05-01T15:38:59.268Z,25.80
2019-05-01T15:41:57.841Z,26.00
2019-05-01T15:44:33.934Z,26.00
2019-05-01T15:47:06.106Z,26.40
2019-05-01T15:49:38.050Z,26.80
2019-05-01T15:52:09.982Z,27.20
2019-05-01T15:54:41.720Z,27.60
2019-05-01T15:57:13.714Z,28.10
2019-05-01T15:59:48.524Z,28.50
2019-05-01T16:02:20.480Z,28.90
2019-05-01T16:04:52.293Z,29.10
2019-05-01T16:07:24.748Z,29.10
2019-05-01T16:10:05.509Z,29.30
2019-05-01T16:12:43.084Z,29.50
2019-05-01T16:15:21.382Z,29.70
2019-05-01T16:17:53.182Z,29.80
2019-05-01T16:20:25.211Z,30.00
2019-05-01T16:22:57.067Z,29.90
2019-05-01T16:25:28.896Z,29.80
2019-05-01T16:28:00.893Z,29.90
2019-05-01T16:30:33.864Z,30.00
2019-05-01T16:33:06.000Z,30.10
2019-05-01T16:35:37.894Z,30.00
2019-05-01T16:38:23.000Z,30.00
2019-05-01T16:41:09.358Z,30.20
2019-05-01T16:43:41.336Z,30.40
2019-05-01T16:46:13.634Z,30.50
2019-05-01T16:48:45.420Z,30.70
2019-05-01T16:51:17.406Z,30.60
2019-05-01T16:53:49.421Z,30.80
2019-05-01T16:56:22.128Z,30.90
2019-05-01T16:58:54.079Z,31.00
2019-05-01T17:01:53.145Z,31.00
2019-05-01T17:04:33.255Z,31.10
2019-05-01T17:07:29.516Z,31.10
2019-05-01T17:10:22.840Z,31.30
2019-05-01T17:12:55.740Z,31.40
2019-05-01T17:15:33.344Z,31.60
2019-05-01T17:18:05.440Z,31.70
2019-05-01T17:20:37.571Z,31.90
2019-05-01T17:23:09.527Z,32.10
2019-05-01T17:25:41.191Z,32.40
2019-05-01T17:28:13.178Z,32.60
2019-05-01T17:30:51.361Z,32.70
2019-05-01T17:33:23.262Z,33.00
2019-05-01T17:35:55.202Z,33.10
2019-05-01T17:38:27.584Z,33.40
2019-05-01T17:40:59.692Z,33.40
2019-05-01T17:43:39.172Z,33.70
2019-05-01T17:46:12.060Z,33.90
2019-05-01T17:48:51.922Z,34.00
2019-05-01T17:51:23.918Z,34.00
2019-05-01T17:53:55.874Z,34.20
2019-05-01T17:56:28.709Z,34.40
2019-05-01T17:59:00.788Z,34.70
2019-05-01T18:01:51.785Z,34.80
2019-05-01T18:04:41.560Z,34.90
2019-05-01T18:07:13.518Z,35.10
2019-05-01T18:09:45.896Z,35.30
2019-05-01T18:12:17.942Z,35.60
2019-05-01T18:14:54.566Z,35.50
2019-05-01T18:17:26.518Z,35.70
2019-05-01T18:19:58.942Z,35.80
2019-05-01T18:22:57.780Z,35.90
2019-05-01T18:25:41.606Z,36.10
2019-05-01T18:28:43.588Z,36.20
2019-05-01T18:31:27.842Z,36.50
2019-05-01T18:34:02.571Z,36.60
2019-05-01T18:36:36.478Z,36.70
2019-05-01T18:39:16.964Z,36.70
2019-05-01T18:42:02.716Z,36.80
2019-05-01T18:44:34.566Z,36.80
2019-05-01T18:47:06.792Z,36.80
2019-05-01T18:49:38.492Z,37.00
2019-05-01T18:52:11.108Z,37.10
2019-05-01T18:54:43.010Z,37.20
2019-05-01T18:57:14.956Z,37.40
2019-05-01T18:59:48.278Z,37.30
2019-05-01T19:02:24.482Z,37.40
2019-05-01T19:04:53.909Z,37.50
2019-05-01T19:07:25.957Z,37.50
2019-05-01T19:09:58.085Z,37.60
2019-05-01T19:12:37.492Z,37.80
2019-05-01T19:15:09.601Z,37.80
2019-05-01T19:17:41.885Z,38.00
2019-05-01T19:20:14.270Z,38.10
2019-05-01T19:22:46.146Z,38.20
2019-05-01T19:25:18.152Z,38.50
2019-05-01T19:27:50.340Z,38.50
2019-05-01T19:30:22.440Z,38.60
2019-05-01T19:32:54.660Z,38.90
2019-05-01T19:35:29.647Z,38.90
2019-05-01T19:38:00.189Z,39.10
2019-05-01T19:40:32.817Z,39.30
2019-05-01T19:43:04.985Z,39.50
2019-05-01T19:45:37.012Z,39.60
2019-05-01T19:48:09.154Z,39.70
2019-05-01T19:50:48.034Z,39.90
2019-05-01T19:53:22.922Z,40.10
2019-05-01T19:55:54.959Z,40.20
2019-05-01T19:58:27.086Z,40.50
2019-05-01T20:01:06.257Z,40.70
2019-05-01T20:03:38.571Z,40.70
2019-05-01T20:06:11.040Z,41.00
2019-05-01T20:08:43.034Z,41.30
2019-05-01T20:11:15.156Z,41.60
2019-05-01T20:13:54.851Z,42.50
2019-05-01T20:16:26.757Z,42.70
2019-05-01T20:18:58.866Z,43.20
2019-05-01T20:21:30.838Z,43.70
2019-05-01T20:24:04.243Z,44.00
2019-05-01T20:26:36.878Z,44.10
2019-05-01T20:29:09.236Z,44.20
2019-05-01T20:31:41.180Z,44.50
2019-05-01T20:34:17.356Z,44.70
2019-05-01T20:36:46.916Z,45.10
2019-05-01T20:39:19.234Z,45.30
2019-05-01T20:41:51.213Z,45.40
2019-05-01T20:44:25.632Z,45.50
2019-05-01T20:46:58.561Z,46.30
2019-05-01T20:49:30.691Z,45.90
2019-05-01T20:52:02.429Z,45.90
2019-05-01T20:54:34.264Z,45.90
2019-05-01T20:57:20.849Z,46.00
2019-05-01T20:59:49.876Z,46.10
2019-05-01T21:02:22.128Z,46.40
2019-05-01T21:05:18.599Z,46.50
2019-05-01T21:08:05.388Z,47.30
2019-05-01T21:10:52.156Z,47.80
2019-05-01T21:13:25.143Z,48.20
2019-05-01T21:16:02.004Z,48.50
2019-05-01T21:18:30.962Z,48.60
2019-05-01T21:21:03.469Z,48.80
2019-05-01T21:23:35.498Z,49.30
2019-05-01T21:26:07.679Z,49.60
2019-05-01T21:28:42.253Z,50.00
2019-05-01T21:31:13.739Z,50.50
2019-05-01T21:33:50.380Z,50.40
2019-05-01T21:36:19.638Z,50.60
2019-05-01T21:38:51.340Z,50.80
2019-05-01T21:41:23.295Z,51.20
2019-05-01T21:43:55.440Z,51.50
2019-05-01T21:46:27.422Z,51.80
2019-05-01T21:48:59.277Z,51.70
2019-05-01T21:51:32.853Z,51.70
2019-05-01T21:54:04.870Z,51.60
2019-05-01T21:56:36.982Z,51.90
2019-05-01T21:59:10.160Z,52.20
2019-05-01T22:01:42.269Z,52.40
2019-05-01T22:04:14.358Z,52.60
2019-05-01T22:06:46.657Z,52.90
2019-05-01T22:09:21.748Z,53.30
2019-05-01T22:11:53.888Z,53.50
2019-05-01T22:14:50.488Z,53.80
2019-05-01T22:17:43.558Z,54.10
2019-05-01T22:20:17.791Z,54.30
2019-05-01T22:22:55.108Z,54.50
2019-05-01T22:25:32.263Z,54.70
2019-05-01T22:28:27.334Z,54.90
2019-05-01T22:31:21.852Z,55.40
2019-05-01T22:33:59.196Z,56.00
2019-05-01T22:36:30.888Z,56.40
2019-05-01T22:39:06.131Z,56.80
2019-05-01T22:41:36.374Z,57.60
2019-05-01T22:44:08.265Z,57.30
2019-05-01T22:46:40.777Z,57.40
2019-05-01T22:49:12.793Z,57.70
2019-05-01T22:51:44.416Z,58.20
2019-05-01T22:54:16.234Z,58.40
2019-05-01T22:56:47.955Z,58.70
2019-05-01T22:59:20.046Z,58.70
2019-05-01T23:01:54.251Z,58.60
2019-05-01T23:04:26.207Z,58.40
2019-05-01T23:06:58.176Z,58.40
2019-05-01T23:09:30.404Z,58.30
2019-05-01T23:12:02.991Z,58.20
2019-05-01T23:14:34.952Z,58.20
2019-05-01T23:17:17.319Z,58.00
2019-05-01T23:19:49.152Z,58.10
2019-05-01T23:22:21.492Z,58.10
2019-05-01T23:24:53.246Z,58.60
2019-05-01T23:27:29.312Z,58.60
2019-05-01T23:29:58.636Z,58.70
2019-05-01T23:32:30.427Z,59.00
2019-05-01T23:35:02.256Z,59.50
2019-05-01T23:37:33.988Z,60.00
2019-05-01T23:40:06.264Z,60.40
2019-05-01T23:42:38.222Z,61.10
2019-05-01T23:45:10.602Z,61.60
2019-05-01T23:47:43.807Z,62.50
2019-05-01T23:50:15.925Z,63.10
2019-05-01T23:52:47.758Z,63.50
2019-05-01T23:55:19.477Z,64.10
2019-05-01T23:57:51.130Z,65.10
